createdAt,value
2022-08-04T00:00:09.340Z,7.07
2022-08-04T00:01:22.312Z,8.15
2022-08-04T00:02:31.165Z,7.83
2022-08-04T00:03:45.721Z,8.68
2022-08-04T00:05:05.426Z,7.69
2022-08-04T00:06:14.737Z,7.77
2022-08-04T00:07:45.007Z,8.56
2022-08-04T00:08:50.260Z,8.58
2022-08-04T00:10:05.534Z,11.22
2022-08-04T00:11:15.529Z,8.46
2022-08-04T00:12:19.773Z,10.19
2022-08-04T00:13:28.166Z,9.57
2022-08-04T00:14:36.127Z,8.19
2022-08-04T00:15:38.998Z,8.62
2022-08-04T00:16:48.185Z,9.59
2022-08-04T00:17:56.654Z,9.31
2022-08-04T00:19:07.017Z,9.69
2022-08-04T00:20:14.020Z,8.83
2022-08-04T00:21:22.432Z,10.58
2022-08-04T00:22:29.349Z,9.27
2022-08-04T00:24:12.113Z,9.89
2022-08-04T00:24:43.508Z,9.20
2022-08-04T00:25:48.783Z,9.29
2022-08-04T00:28:05.979Z,10.08
2022-08-04T00:29:09.911Z,9.21
2022-08-04T00:30:16.052Z,9.36
2022-08-04T00:31:21.335Z,9.46
2022-08-04T00:32:34.662Z,11.69
2022-08-04T00:33:40.316Z,9.54
2022-08-04T00:34:47.336Z,8.99
2022-08-04T00:35:53.377Z,11.30
2022-08-04T00:36:59.659Z,10.55
2022-08-04T00:38:04.098Z,9.44
2022-08-04T00:39:17.203Z,10.13
2022-08-04T00:40:42.401Z,10.21
2022-08-04T00:42:09.090Z,9.68
2022-08-04T00:43:22.418Z,10.92
2022-08-04T00:44:38.186Z,11.22
2022-08-04T00:46:10.913Z,10.67
2022-08-04T00:48:51.512Z,11.91
2022-08-04T00:50:11.305Z,10.71
2022-08-04T00:51:33.425Z,10.06
2022-08-04T00:54:22.088Z,10.58
2022-08-04T00:55:43.991Z,10.48
2022-08-04T00:57:06.978Z,11.22
2022-08-04T00:58:24.904Z,11.56
2022-08-04T00:59:44.023Z,11.31
2022-08-04T01:01:08.235Z,9.61
2022-08-04T01:02:41.689Z,11.76
2022-08-04T01:03:58.785Z,10.73
2022-08-04T01:05:24.811Z,11.54
2022-08-04T01:07:08.532Z,11.61
2022-08-04T01:08:30.909Z,11.04
2022-08-04T01:09:40.996Z,11.22
2022-08-04T01:11:03.614Z,10.24
2022-08-04T01:12:19.767Z,11.50
2022-08-04T01:13:30.931Z,12.14
2022-08-04T01:14:49.677Z,12.93
2022-08-04T01:16:00.554Z,12.90
2022-08-04T01:17:05.941Z,12.53
2022-08-04T01:18:16.339Z,14.56
2022-08-04T01:21:04.357Z,12.82
2022-08-04T01:22:22.254Z,13.72
2022-08-04T01:23:50.016Z,11.90
2022-08-04T01:25:20.033Z,12.78
2022-08-04T01:26:42.568Z,12.04
2022-08-04T01:27:53.259Z,12.59
2022-08-04T01:29:16.246Z,13.46
2022-08-04T01:30:22.396Z,11.93
2022-08-04T01:31:38.175Z,12.13
2022-08-04T01:34:04.407Z,15.77
2022-08-04T01:35:09.311Z,13.05
2022-08-04T01:36:14.970Z,13.36
2022-08-04T01:37:38.800Z,13.54
2022-08-04T01:38:44.353Z,14.32
2022-08-04T01:39:54.783Z,13.07
2022-08-04T01:41:02.064Z,12.28
2022-08-04T01:42:09.635Z,16.19
2022-08-04T01:43:14.986Z,12.39
2022-08-04T01:44:19.993Z,12.77
2022-08-04T01:45:26.055Z,14.61
2022-08-04T01:46:34.012Z,13.64
2022-08-04T01:47:41.436Z,11.51
2022-08-04T01:48:48.509Z,12.81
2022-08-04T01:49:55.270Z,11.99
2022-08-04T01:51:01.785Z,12.79
2022-08-04T01:52:09.674Z,11.95
2022-08-04T01:53:14.147Z,14.68
2022-08-04T01:54:21.597Z,12.39
2022-08-04T01:55:52.068Z,14.99
2022-08-04T01:56:35.337Z,12.52
2022-08-04T01:57:47.936Z,13.33
2022-08-04T02:00:01.805Z,14.47
2022-08-04T02:01:14.198Z,13.78
2022-08-04T02:02:18.499Z,13.13
2022-08-04T02:03:22.224Z,15.15
2022-08-04T02:04:26.745Z,14.72
2022-08-04T02:07:09.412Z,14.48
2022-08-04T02:08:25.579Z,14.31
2022-08-04T02:09:54.562Z,12.51
2022-08-04T02:11:16.092Z,14.52
2022-08-04T02:12:32.853Z,11.98
2022-08-04T02:13:45.065Z,13.06
2022-08-04T02:14:53.495Z,17.47
2022-08-04T02:16:22.011Z,13.64
2022-08-04T02:17:47.086Z,14.17
2022-08-04T02:19:03.458Z,14.91
2022-08-04T02:20:11.105Z,12.69
2022-08-04T02:21:17.919Z,14.12
2022-08-04T02:22:23.147Z,16.25
2022-08-04T02:23:43.866Z,16.08
2022-08-04T02:24:53.501Z,15.20
2022-08-04T02:25:59.931Z,16.59
2022-08-04T02:27:04.265Z,14.68
2022-08-04T02:28:13.679Z,16.04
2022-08-04T02:29:24.331Z,17.23
2022-08-04T02:32:03.108Z,13.90
2022-08-04T02:33:11.777Z,14.18
2022-08-04T02:34:33.141Z,17.77
2022-08-04T02:36:44.953Z,14.76
2022-08-04T02:37:50.985Z,13.42
2022-08-04T02:39:03.561Z,14.77
2022-08-04T02:40:10.764Z,15.33
2022-08-04T02:41:18.597Z,14.12
2022-08-04T02:42:23.312Z,13.94
2022-08-04T02:43:52.105Z,13.84
2022-08-04T02:44:40.730Z,14.50
2022-08-04T02:45:49.568Z,14.11
2022-08-04T02:46:54.568Z,11.88
2022-08-04T02:48:28.823Z,16.04
2022-08-04T02:49:14.303Z,12.30
2022-08-04T02:50:28.139Z,14.42
2022-08-04T02:51:32.750Z,14.68
2022-08-04T02:52:37.223Z,13.31
2022-08-04T02:53:42.277Z,13.54
2022-08-04T02:54:48.069Z,14.38
2022-08-04T02:55:56.482Z,14.79
2022-08-04T02:57:08.446Z,15.27
2022-08-04T02:59:15.630Z,17.13
2022-08-04T03:00:21.586Z,16.21
2022-08-04T03:01:25.644Z,16.14
2022-08-04T03:04:41.750Z,14.78
2022-08-04T03:06:01.232Z,18.44
2022-08-04T03:07:21.325Z,17.62
2022-08-04T03:08:38.853Z,15.62
2022-08-04T03:09:54.404Z,16.40
2022-08-04T03:11:24.926Z,16.57
2022-08-04T03:12:36.983Z,16.42
2022-08-04T03:13:49.800Z,17.33
2022-08-04T03:15:00.506Z,16.98
2022-08-04T03:17:56.600Z,15.06
2022-08-04T03:19:28.173Z,16.12
2022-08-04T03:22:07.914Z,15.57
2022-08-04T03:23:40.894Z,18.33
2022-08-04T03:26:24.239Z,21.26
2022-08-04T03:27:49.621Z,16.97
2022-08-04T03:29:36.752Z,17.54
2022-08-04T03:30:46.195Z,19.44
2022-08-04T03:32:20.471Z,16.97
2022-08-04T03:33:58.724Z,18.52
2022-08-04T03:35:24.009Z,17.98
2022-08-04T03:36:34.139Z,19.31
2022-08-04T03:38:16.987Z,19.49
2022-08-04T03:40:45.316Z,19.70
2022-08-04T03:42:04.704Z,18.92
2022-08-04T03:43:59.007Z,19.75
2022-08-04T03:45:20.549Z,20.18
2022-08-04T03:46:33.202Z,16.85
2022-08-04T03:48:05.283Z,16.23
2022-08-04T03:49:33.018Z,19.42
2022-08-04T03:51:34.841Z,18.18
2022-08-04T03:52:56.697Z,18.83
2022-08-04T03:56:12.399Z,20.01
2022-08-04T03:57:35.821Z,17.19
2022-08-04T03:59:00.835Z,19.82
2022-08-04T04:00:19.520Z,16.38
2022-08-04T04:01:28.006Z,18.44
2022-08-04T04:03:06.119Z,20.64
2022-08-04T04:04:30.848Z,18.51
2022-08-04T04:06:02.333Z,18.17
2022-08-04T04:07:15.160Z,19.34
2022-08-04T04:08:42.201Z,19.54
2022-08-04T04:10:16.324Z,18.42
2022-08-04T04:11:54.196Z,17.62
2022-08-04T04:13:06.883Z,18.51
2022-08-04T04:14:14.171Z,19.83
2022-08-04T04:15:47.026Z,19.31
2022-08-04T04:17:04.108Z,22.36
2022-08-04T04:18:23.627Z,18.57
2022-08-04T04:19:33.788Z,20.63
2022-08-04T04:22:22.178Z,21.19
2022-08-04T04:23:40.980Z,19.80
2022-08-04T04:25:04.853Z,21.64
2022-08-04T04:26:27.790Z,20.76
2022-08-04T04:28:44.711Z,20.09
2022-08-04T04:29:33.074Z,22.85
2022-08-04T04:30:46.193Z,22.70
2022-08-04T04:31:59.554Z,23.81
2022-08-04T04:33:34.132Z,21.82
2022-08-04T04:34:47.509Z,20.47
2022-08-04T04:36:10.355Z,22.41
2022-08-04T04:37:37.305Z,22.93
2022-08-04T04:39:03.761Z,22.90
2022-08-04T04:40:21.532Z,20.54
2022-08-04T04:43:14.606Z,22.23
2022-08-04T04:46:00.783Z,19.66
2022-08-04T04:48:07.050Z,20.86
2022-08-04T04:48:59.305Z,23.18
2022-08-04T04:50:16.854Z,21.51
2022-08-04T04:51:36.235Z,21.22
2022-08-04T04:52:43.653Z,19.77
2022-08-04T04:54:15.262Z,20.18
2022-08-04T04:56:37.152Z,21.48
2022-08-04T04:57:53.168Z,22.62
2022-08-04T04:58:51.640Z,22.33
2022-08-04T05:00:06.087Z,21.97
2022-08-04T05:01:22.734Z,20.51
2022-08-04T05:03:08.949Z,18.98
2022-08-04T05:04:47.392Z,22.13
2022-08-04T05:06:07.495Z,20.76
2022-08-04T05:07:22.593Z,20.82
2022-08-04T05:08:45.289Z,20.38
2022-08-04T05:09:52.675Z,20.93
2022-08-04T05:11:28.139Z,20.68
2022-08-04T05:14:35.737Z,19.27
2022-08-04T05:15:33.033Z,22.17
2022-08-04T05:16:45.339Z,21.74
2022-08-04T05:17:53.071Z,21.07
2022-08-04T05:20:37.077Z,21.01
2022-08-04T05:21:49.420Z,17.48
2022-08-04T05:22:59.968Z,19.78
2022-08-04T05:24:07.270Z,18.80
2022-08-04T05:25:29.220Z,17.41
2022-08-04T05:26:36.529Z,22.31
2022-08-04T05:27:43.859Z,18.65
2022-08-04T05:28:55.652Z,20.95
2022-08-04T05:30:05.645Z,20.35
2022-08-04T05:31:18.642Z,18.66
2022-08-04T05:32:27.140Z,21.46
2022-08-04T05:33:36.688Z,20.52
2022-08-04T05:34:43.223Z,20.44
2022-08-04T05:36:17.776Z,19.70
2022-08-04T05:37:04.063Z,21.03
2022-08-04T05:38:08.777Z,19.64
2022-08-04T05:39:17.325Z,21.08
2022-08-04T05:40:23.553Z,22.34
2022-08-04T05:41:32.353Z,20.12
2022-08-04T05:42:40.124Z,21.06
2022-08-04T05:43:47.757Z,23.27
2022-08-04T05:44:59.571Z,24.99
2022-08-04T05:46:09.280Z,21.56
2022-08-04T05:47:14.063Z,24.57
2022-08-04T05:48:18.865Z,23.60
2022-08-04T05:49:27.548Z,24.86
2022-08-04T05:50:40.760Z,25.41
2022-08-04T05:51:47.352Z,24.36
2022-08-04T05:52:52.204Z,23.22
2022-08-04T05:53:58.907Z,23.86
2022-08-04T05:55:04.920Z,21.59
2022-08-04T05:56:11.327Z,21.52
2022-08-04T05:57:16.982Z,24.16
2022-08-04T05:58:23.876Z,21.63
2022-08-04T05:59:33.052Z,21.06
2022-08-04T06:00:41.270Z,20.99
2022-08-04T06:01:55.118Z,21.09
2022-08-04T06:02:52.370Z,19.64
2022-08-04T06:03:58.414Z,20.55
2022-08-04T06:05:03.269Z,19.51
2022-08-04T06:06:12.075Z,21.41
2022-08-04T06:07:16.415Z,19.38
2022-08-04T06:08:21.388Z,19.45
2022-08-04T06:09:27.533Z,19.58
2022-08-04T06:10:34.141Z,21.08
2022-08-04T06:12:00.438Z,21.91
2022-08-04T06:14:14.317Z,21.53
2022-08-04T06:15:25.242Z,20.52
2022-08-04T06:16:35.110Z,20.34
2022-08-04T06:18:34.077Z,21.30
2022-08-04T06:20:01.126Z,20.44
2022-08-04T06:20:18.934Z,20.41
2022-08-04T06:21:17.182Z,22.20
2022-08-04T06:22:23.843Z,19.76
2022-08-04T06:23:30.761Z,19.24
2022-08-04T06:24:40.030Z,20.56
2022-08-04T06:25:53.449Z,21.39
2022-08-04T06:26:59.777Z,19.67
2022-08-04T06:28:09.020Z,18.68
2022-08-04T06:29:20.132Z,19.08
2022-08-04T06:30:26.771Z,19.60
2022-08-04T06:32:27.915Z,19.11
2022-08-04T06:32:50.178Z,17.28
2022-08-04T06:33:54.566Z,19.09
2022-08-04T06:35:04.929Z,19.54
2022-08-04T06:36:12.726Z,18.96
2022-08-04T06:37:43.178Z,18.94
2022-08-04T06:38:27.759Z,20.12
2022-08-04T06:39:34.818Z,17.57
2022-08-04T06:40:41.758Z,18.06
2022-08-04T06:42:16.988Z,19.07
2022-08-04T06:42:54.377Z,18.52
2022-08-04T06:44:10.013Z,17.77
2022-08-04T06:45:16.232Z,19.87
2022-08-04T06:46:21.661Z,19.09
2022-08-04T06:47:26.420Z,17.18
2022-08-04T06:48:33.780Z,18.44
2022-08-04T06:49:43.903Z,17.93
2022-08-04T06:51:26.689Z,19.07
2022-08-04T06:52:05.496Z,18.47
2022-08-04T06:53:10.000Z,17.04
2022-08-04T06:54:13.715Z,18.49
2022-08-04T06:55:21.331Z,16.39
2022-08-04T06:57:41.917Z,17.34
2022-08-04T06:58:48.867Z,18.49
2022-08-04T06:59:58.787Z,17.47
2022-08-04T07:01:03.656Z,17.71
2022-08-04T07:02:11.389Z,18.02
2022-08-04T07:03:17.443Z,20.72
2022-08-04T07:04:22.960Z,19.41
2022-08-04T07:05:29.759Z,17.27
2022-08-04T07:06:33.988Z,20.57
2022-08-04T07:07:56.937Z,17.62
2022-08-04T07:08:48.288Z,17.74
2022-08-04T07:09:54.675Z,19.16
2022-08-04T07:11:05.882Z,17.19
2022-08-04T07:12:12.909Z,18.44
2022-08-04T07:13:17.820Z,17.54
2022-08-04T07:14:22.639Z,17.00
2022-08-04T07:15:28.146Z,17.15
2022-08-04T07:16:34.045Z,17.84
2022-08-04T07:17:39.675Z,17.48
2022-08-04T07:18:46.615Z,17.56
2022-08-04T07:19:50.368Z,16.82
2022-08-04T07:20:54.290Z,17.35
2022-08-04T07:22:18.007Z,19.72
2022-08-04T07:23:12.188Z,18.45
2022-08-04T07:24:17.240Z,20.08
2022-08-04T07:25:24.393Z,18.64
2022-08-04T07:26:30.352Z,16.27
2022-08-04T07:27:47.910Z,17.39
2022-08-04T07:28:41.209Z,18.11
2022-08-04T07:29:45.430Z,15.81
2022-08-04T07:30:53.379Z,17.94
2022-08-04T07:31:59.263Z,16.34
2022-08-04T07:33:04.070Z,17.06
2022-08-04T07:34:20.812Z,17.34
2022-08-04T07:36:10.211Z,17.49
2022-08-04T07:36:31.255Z,17.92
2022-08-04T07:37:39.974Z,15.84
2022-08-04T07:38:50.834Z,16.33
2022-08-04T07:39:59.018Z,17.97
2022-08-04T07:41:35.284Z,18.66
2022-08-04T07:42:12.534Z,18.72
2022-08-04T07:43:18.128Z,16.81
2022-08-04T07:44:21.725Z,20.89
2022-08-04T07:45:29.580Z,18.12
2022-08-04T07:46:33.364Z,17.87
2022-08-04T07:47:41.413Z,16.63
2022-08-04T07:48:47.072Z,21.27
2022-08-04T07:49:55.589Z,18.40
2022-08-04T07:50:58.401Z,17.43
2022-08-04T07:52:02.975Z,17.22
2022-08-04T07:53:53.900Z,18.89
2022-08-04T07:54:15.449Z,17.31
2022-08-04T07:55:21.992Z,19.28
2022-08-04T07:56:29.186Z,18.56
2022-08-04T07:57:41.398Z,18.70
2022-08-04T07:58:38.348Z,18.85
2022-08-04T07:59:48.233Z,15.29
2022-08-04T08:00:49.881Z,17.04
2022-08-04T08:27:56.012Z,18.12
2022-08-04T08:30:12.181Z,16.72
2022-08-04T08:31:55.593Z,18.10
2022-08-04T08:32:30.905Z,17.27
2022-08-04T08:33:35.170Z,17.89
2022-08-04T08:34:42.873Z,16.48
2022-08-04T08:37:34.053Z,16.26
2022-08-04T08:39:05.009Z,14.79
2022-08-04T08:40:40.629Z,16.49
2022-08-04T08:41:51.980Z,15.62
2022-08-04T08:44:06.149Z,14.19
2022-08-04T08:44:58.086Z,14.82
2022-08-04T08:46:48.065Z,15.24
2022-08-04T08:48:04.831Z,16.49
2022-08-04T08:50:02.373Z,14.78
2022-08-04T08:50:46.404Z,15.26
2022-08-04T08:52:17.436Z,14.02
2022-08-04T08:53:48.827Z,14.07
2022-08-04T08:54:59.036Z,16.44
2022-08-04T08:56:13.764Z,15.38
2022-08-04T08:57:30.953Z,14.54
2022-08-04T08:58:56.262Z,13.99
2022-08-04T09:00:10.853Z,12.88
2022-08-04T09:01:28.774Z,13.94
2022-08-04T09:04:31.978Z,14.69
2022-08-04T09:05:41.345Z,11.90
2022-08-04T09:07:02.384Z,14.49
2022-08-04T09:09:40.389Z,14.23
2022-08-04T09:10:55.976Z,14.22
2022-08-04T09:12:20.035Z,11.67
2022-08-04T09:13:28.824Z,10.92
2022-08-04T09:14:48.167Z,11.91
2022-08-04T09:16:22.833Z,12.56
2022-08-04T09:19:38.909Z,13.13
2022-08-04T09:20:34.287Z,11.69
2022-08-04T09:21:51.559Z,11.89
2022-08-04T09:23:00.160Z,11.85
2022-08-04T09:24:35.208Z,12.95
2022-08-04T09:25:56.049Z,12.83
2022-08-04T09:27:04.732Z,11.47
2022-08-04T09:28:43.517Z,10.75
2022-08-04T09:29:45.002Z,10.71
2022-08-04T09:32:38.071Z,13.42
2022-08-04T09:34:04.869Z,11.58
2022-08-04T09:35:41.238Z,11.63
2022-08-04T09:37:16.845Z,10.18
2022-08-04T09:38:50.244Z,10.68
2022-08-04T09:39:58.638Z,10.94
2022-08-04T09:41:20.899Z,10.13
2022-08-04T09:42:38.559Z,11.44
2022-08-04T09:44:49.904Z,9.75
2022-08-04T09:45:45.128Z,10.26
2022-08-04T09:47:26.015Z,11.14
2022-08-04T09:48:38.173Z,12.44
2022-08-04T09:50:04.926Z,10.45
2022-08-04T09:52:35.713Z,9.43
2022-08-04T09:54:08.648Z,9.37
2022-08-04T09:55:19.893Z,12.68
2022-08-04T09:56:37.377Z,10.93
2022-08-04T09:58:10.126Z,9.27
2022-08-04T09:59:19.933Z,9.08
2022-08-04T10:00:40.519Z,9.05
2022-08-04T10:01:37.123Z,8.79
2022-08-04T10:02:43.785Z,10.09
2022-08-04T10:03:54.621Z,11.07
2022-08-04T10:05:02.803Z,9.83
2022-08-04T10:06:34.786Z,10.36
2022-08-04T10:08:18.346Z,9.43
2022-08-04T10:09:42.303Z,10.74
2022-08-04T10:11:00.893Z,10.49
2022-08-04T10:12:47.082Z,9.50
2022-08-04T10:14:08.756Z,10.11
2022-08-04T10:15:24.559Z,9.28
2022-08-04T10:16:44.978Z,10.53
2022-08-04T10:17:56.389Z,9.10
2022-08-04T10:19:33.249Z,10.49
2022-08-04T10:20:55.674Z,11.73
2022-08-04T10:22:29.253Z,9.78
2022-08-04T10:23:55.111Z,13.05
2022-08-04T10:24:53.702Z,10.11
2022-08-04T10:26:27.317Z,10.29
2022-08-04T10:27:40.096Z,10.90
2022-08-04T10:29:00.046Z,9.55
2022-08-04T10:30:14.275Z,10.53
2022-08-04T10:31:27.674Z,10.74
2022-08-04T10:32:42.752Z,10.94
2022-08-04T10:33:55.404Z,8.76
2022-08-04T10:35:13.597Z,10.72
2022-08-04T10:36:23.733Z,9.55
2022-08-04T10:37:59.875Z,8.56
2022-08-04T10:38:58.922Z,10.01
2022-08-04T10:40:45.706Z,8.20
2022-08-04T10:42:12.448Z,8.90
2022-08-04T10:43:41.917Z,8.96
2022-08-04T10:45:21.281Z,9.78
2022-08-04T10:46:30.853Z,9.59
2022-08-04T10:47:41.029Z,9.83
2022-08-04T10:48:47.251Z,9.87
2022-08-04T10:50:01.533Z,9.22
2022-08-04T10:51:08.702Z,8.44
2022-08-04T10:52:19.946Z,11.99
2022-08-04T10:53:25.301Z,10.51
2022-08-04T10:54:49.323Z,8.98
2022-08-04T10:55:59.516Z,9.79
2022-08-04T10:57:18.696Z,9.13
2022-08-04T10:58:46.893Z,8.35
2022-08-04T11:00:03.191Z,8.38
2022-08-04T11:01:07.312Z,8.61
2022-08-04T11:02:40.491Z,8.35
2022-08-04T11:04:04.354Z,9.14
2022-08-04T11:05:31.991Z,9.54
2022-08-04T11:06:37.158Z,8.97
2022-08-04T11:07:44.705Z,9.27
2022-08-04T11:08:54.637Z,8.87
2022-08-04T11:10:00.694Z,8.29
2022-08-04T11:12:00.673Z,7.76
2022-08-04T11:13:01.869Z,8.51
2022-08-04T11:14:13.047Z,8.66
2022-08-04T11:15:35.929Z,8.39
2022-08-04T11:16:49.301Z,9.95
2022-08-04T11:18:01.795Z,8.36
2022-08-04T11:19:44.880Z,9.12
2022-08-04T11:20:39.719Z,8.06
2022-08-04T11:23:12.517Z,8.60
2022-08-04T11:24:22.608Z,8.92
2022-08-04T11:25:36.928Z,10.01
2022-08-04T11:26:56.540Z,7.97
2022-08-04T11:28:21.925Z,8.76
2022-08-04T11:29:58.480Z,8.09
2022-08-04T11:31:26.917Z,7.24
2022-08-04T11:32:37.209Z,7.89
2022-08-04T11:33:52.164Z,8.83
2022-08-04T11:35:01.141Z,8.76
2022-08-04T11:36:30.023Z,7.30
2022-08-04T11:37:49.485Z,8.09
2022-08-04T11:39:02.501Z,9.41
2022-08-04T11:40:13.200Z,7.52
2022-08-04T11:41:22.235Z,7.72
2022-08-04T11:42:36.969Z,7.42
2022-08-04T11:44:00.645Z,10.51
2022-08-04T11:45:13.801Z,7.46
2022-08-04T11:46:23.388Z,8.36
2022-08-04T11:47:33.595Z,8.41
2022-08-04T11:48:40.711Z,10.74
2022-08-04T11:49:57.310Z,7.47
2022-08-04T11:50:56.636Z,7.79
2022-08-04T11:52:02.962Z,7.19
2022-08-04T11:53:11.726Z,8.50
2022-08-04T11:54:16.341Z,7.36
2022-08-04T11:55:23.027Z,7.68
2022-08-04T11:56:36.743Z,7.42
2022-08-04T11:57:35.600Z,9.37
2022-08-04T11:58:50.139Z,7.09
2022-08-04T11:59:57.390Z,7.69
2022-08-04T12:01:25.103Z,8.36
2022-08-04T12:02:49.986Z,8.56
2022-08-04T12:04:04.795Z,8.77
2022-08-04T12:05:23.255Z,7.41
2022-08-04T12:06:36.880Z,6.96
2022-08-04T12:08:01.558Z,7.40
2022-08-04T12:09:10.324Z,8.28
2022-08-04T12:10:42.895Z,8.25
2022-08-04T12:12:09.877Z,9.72
2022-08-04T12:18:48.353Z,9.13
2022-08-04T12:20:04.232Z,10.11
2022-08-04T12:21:10.660Z,9.08
2022-08-04T12:22:21.329Z,9.07
2022-08-04T12:23:29.309Z,8.75
2022-08-04T12:24:47.568Z,8.93
2022-08-04T12:25:55.706Z,8.24
2022-08-04T12:27:17.524Z,9.34
2022-08-04T12:28:46.309Z,8.71
2022-08-04T12:29:37.488Z,8.96
2022-08-04T12:31:01.618Z,8.14
2022-08-04T12:32:01.894Z,7.35
2022-08-04T12:33:18.110Z,7.56
2022-08-04T12:34:45.719Z,7.62
2022-08-04T12:36:10.935Z,7.20
2022-08-04T12:37:14.160Z,6.61
2022-08-04T12:38:23.057Z,7.49
2022-08-04T12:39:27.215Z,6.54
2022-08-04T12:40:51.949Z,8.12
2022-08-04T12:42:07.755Z,7.73
2022-08-04T12:43:31.691Z,6.84
2022-08-04T12:44:40.764Z,7.01
2022-08-04T12:45:57.532Z,6.78
2022-08-04T12:47:26.518Z,7.62
2022-08-04T12:48:20.595Z,6.54
2022-08-04T12:49:25.567Z,6.77
2022-08-04T12:50:31.629Z,7.21
2022-08-04T12:52:07.835Z,7.41
2022-08-04T12:53:01.578Z,7.22
2022-08-04T12:53:58.688Z,6.81
2022-08-04T12:55:05.580Z,8.76
2022-08-04T12:56:11.959Z,7.66
2022-08-04T12:57:18.083Z,7.87
2022-08-04T12:58:43.827Z,7.72
2022-08-04T12:59:45.573Z,8.92
2022-08-04T13:02:09.176Z,8.73
2022-08-04T13:02:19.658Z,11.21
2022-08-04T13:03:26.403Z,8.74
2022-08-04T13:04:32.668Z,9.02
2022-08-04T13:05:40.336Z,9.66
2022-08-04T13:06:46.108Z,8.59
2022-08-04T13:07:52.400Z,8.84
2022-08-04T13:09:01.029Z,9.17
2022-08-04T13:10:18.304Z,9.18
2022-08-04T13:11:26.247Z,9.78
2022-08-04T13:12:32.862Z,10.37
2022-08-04T13:13:38.780Z,9.16
2022-08-04T13:14:46.239Z,8.73
2022-08-04T13:16:01.829Z,9.54
2022-08-04T13:17:08.705Z,8.87
2022-08-04T13:18:15.030Z,8.62
2022-08-04T13:19:19.569Z,8.52
2022-08-04T13:20:36.654Z,8.00
2022-08-04T13:22:01.798Z,7.46
2022-08-04T13:23:09.254Z,6.94
2022-08-04T13:26:43.169Z,6.49
2022-08-04T13:26:44.160Z,6.23
2022-08-04T13:27:43.436Z,6.82
2022-08-04T13:28:48.924Z,6.26
2022-08-04T13:29:59.371Z,5.92
2022-08-04T13:31:04.542Z,5.93
2022-08-04T13:32:09.682Z,6.49
2022-08-04T13:33:13.109Z,6.13
2022-08-04T13:34:19.731Z,6.03
2022-08-04T13:35:55.303Z,5.97
2022-08-04T13:36:32.508Z,5.81
2022-08-04T13:37:41.669Z,7.51
2022-08-04T13:38:50.509Z,4.95
2022-08-04T13:39:56.491Z,5.74
2022-08-04T13:41:05.876Z,5.75
2022-08-04T13:42:14.071Z,5.66
2022-08-04T13:44:16.605Z,5.87
2022-08-04T13:44:40.867Z,6.52
2022-08-04T13:45:45.807Z,5.59
2022-08-04T13:47:17.496Z,7.29
2022-08-04T13:48:32.828Z,7.55
2022-08-04T13:49:37.987Z,5.90
2022-08-04T13:50:33.518Z,7.77
2022-08-04T13:51:58.093Z,6.46
2022-08-04T13:52:53.425Z,7.83
2022-08-04T13:54:02.377Z,9.03
2022-08-04T13:55:07.620Z,7.29
2022-08-04T13:56:15.214Z,6.92
2022-08-04T13:57:26.327Z,8.51
2022-08-04T13:58:39.033Z,9.21
2022-08-04T13:59:42.688Z,7.04
2022-08-04T14:01:04.598Z,8.06
2022-08-04T14:02:12.952Z,7.89
2022-08-04T14:03:54.333Z,8.16
2022-08-04T14:04:50.595Z,7.51
2022-08-04T14:06:17.322Z,10.48
2022-08-04T14:07:23.071Z,8.30
2022-08-04T14:08:31.557Z,6.21
2022-08-04T14:09:39.644Z,7.65
2022-08-04T14:10:43.360Z,6.57
2022-08-04T14:12:06.102Z,7.09
2022-08-04T14:13:04.344Z,6.72
2022-08-04T14:14:31.061Z,6.62
2022-08-04T14:16:01.486Z,6.47
2022-08-04T14:18:22.022Z,7.19
2022-08-04T14:19:36.191Z,6.03
2022-08-04T14:20:37.945Z,6.31
2022-08-04T14:21:44.099Z,5.14
2022-08-04T14:22:47.883Z,5.22
2022-08-04T14:23:56.855Z,4.55
2022-08-04T14:26:34.154Z,5.57
2022-08-04T14:27:51.669Z,5.11
2022-08-04T14:29:27.455Z,4.34
2022-08-04T14:30:07.867Z,5.17
2022-08-04T14:31:17.116Z,4.89
2022-08-04T14:32:26.306Z,6.16
2022-08-04T14:34:01.759Z,6.45
2022-08-04T14:34:45.695Z,4.46
2022-08-04T14:36:04.541Z,4.61
2022-08-04T14:37:18.361Z,4.00
2022-08-04T14:38:15.756Z,5.15
2022-08-04T14:39:22.686Z,4.38
2022-08-04T14:40:32.152Z,4.08
2022-08-04T14:41:53.732Z,3.85
2022-08-04T14:42:58.690Z,4.17
2022-08-04T14:44:04.348Z,4.34
2022-08-04T14:45:10.120Z,4.81
2022-08-04T14:46:15.385Z,4.41
2022-08-04T14:47:19.244Z,4.43
2022-08-04T14:48:23.324Z,4.92
2022-08-04T14:49:28.459Z,5.35
2022-08-04T14:50:38.989Z,4.65
2022-08-04T14:51:48.808Z,5.08
2022-08-04T14:52:55.827Z,5.22
2022-08-04T14:53:59.394Z,5.04
2022-08-04T14:55:23.718Z,5.03
2022-08-04T14:56:46.114Z,4.94
2022-08-04T14:58:34.129Z,5.73
2022-08-04T14:58:41.585Z,7.56
2022-08-04T15:00:00.763Z,5.19
2022-08-04T15:00:59.731Z,5.46
2022-08-04T15:02:08.171Z,5.24
2022-08-04T15:03:13.181Z,5.63
2022-08-04T15:04:16.257Z,5.62
2022-08-04T15:06:02.992Z,6.06
2022-08-04T15:06:32.251Z,6.85
2022-08-04T15:07:37.228Z,4.98
2022-08-04T15:08:44.373Z,6.36
2022-08-04T15:09:46.331Z,5.93
2022-08-04T15:10:50.563Z,7.08
2022-08-04T15:11:54.861Z,8.26
2022-08-04T15:13:00.293Z,6.41
2022-08-04T15:14:05.085Z,6.14
2022-08-04T15:15:35.465Z,5.82
2022-08-04T15:16:15.862Z,5.63
2022-08-04T15:17:29.402Z,6.54
2022-08-04T15:18:28.511Z,7.70
2022-08-04T15:19:31.872Z,6.34
2022-08-04T15:20:40.436Z,7.85
2022-08-04T15:21:44.517Z,5.63
2022-08-04T15:22:49.670Z,6.49
2022-08-04T15:25:07.357Z,6.06
2022-08-04T15:26:34.667Z,5.93
2022-08-04T15:27:43.563Z,8.39
2022-08-04T15:28:53.824Z,6.48
2022-08-04T15:30:09.828Z,6.61
2022-08-04T15:32:05.773Z,6.38
2022-08-04T15:32:25.007Z,6.67
2022-08-04T15:33:34.181Z,6.89
2022-08-04T15:34:51.405Z,7.34
2022-08-04T15:36:14.293Z,7.04
2022-08-04T15:37:33.228Z,6.84
2022-08-04T15:38:53.052Z,6.84
2022-08-04T15:40:04.263Z,7.42
2022-08-04T15:41:10.099Z,6.13
2022-08-04T15:42:35.119Z,6.88
2022-08-04T15:43:59.689Z,6.54
2022-08-04T15:45:20.148Z,6.52
2022-08-04T15:46:44.918Z,6.65
2022-08-04T15:48:09.377Z,9.26
2022-08-04T15:50:39.612Z,7.79
2022-08-04T15:51:44.452Z,7.45
2022-08-04T15:53:00.938Z,6.42
2022-08-04T15:54:27.893Z,7.24
2022-08-04T15:55:45.476Z,7.75
2022-08-04T15:57:01.612Z,7.37
2022-08-04T15:58:01.541Z,8.34
2022-08-04T15:59:06.026Z,7.29
2022-08-04T16:00:15.051Z,6.97
2022-08-04T16:01:19.847Z,7.61
2022-08-04T16:02:42.638Z,7.04
2022-08-04T16:03:58.718Z,7.68
2022-08-04T16:05:19.058Z,6.77
2022-08-04T16:06:34.115Z,7.07
2022-08-04T16:09:12.042Z,7.33
2022-08-04T16:10:34.789Z,7.06
2022-08-04T16:11:41.153Z,6.82
2022-08-04T16:12:57.219Z,7.42
2022-08-04T16:14:06.399Z,6.89
2022-08-04T16:15:48.108Z,9.12
2022-08-04T16:16:54.763Z,7.50
2022-08-04T16:17:58.269Z,7.73
2022-08-04T16:19:11.476Z,7.58
2022-08-04T16:20:16.611Z,7.88
2022-08-04T16:21:27.483Z,7.48
2022-08-04T16:24:02.062Z,7.75
2022-08-04T16:25:03.110Z,8.21
2022-08-04T16:26:05.996Z,8.46
2022-08-04T16:27:12.189Z,9.00
2022-08-04T16:28:40.721Z,7.44
2022-08-04T16:29:46.909Z,7.61
2022-08-04T16:30:50.444Z,7.22
2022-08-04T16:32:12.047Z,8.67
2022-08-04T16:33:21.779Z,7.68
2022-08-04T16:34:48.426Z,7.48
2022-08-04T16:35:41.914Z,9.38
2022-08-04T16:38:14.736Z,8.28
2022-08-04T16:39:21.387Z,7.93
2022-08-04T16:40:35.833Z,8.15
2022-08-04T16:41:42.579Z,9.36
2022-08-04T16:42:46.977Z,9.02
2022-08-04T16:43:50.359Z,9.79
2022-08-04T16:45:04.578Z,8.61
2022-08-04T16:46:18.374Z,9.90
2022-08-04T16:47:22.597Z,8.26
2022-08-04T16:48:27.258Z,8.95
2022-08-04T16:49:34.859Z,8.27
2022-08-04T16:50:53.638Z,9.88
2022-08-04T16:52:05.383Z,7.99
2022-08-04T16:53:14.543Z,10.93
2022-08-04T16:54:21.830Z,8.85
2022-08-04T16:55:27.322Z,9.46
2022-08-04T16:56:33.375Z,10.68
2022-08-04T16:57:40.217Z,8.43
2022-08-04T16:58:53.677Z,10.38
2022-08-04T16:59:55.895Z,10.57
2022-08-04T17:01:12.185Z,9.02
2022-08-04T17:02:24.864Z,9.15
2022-08-04T17:03:29.864Z,10.07
2022-08-04T17:04:35.916Z,9.56
2022-08-04T17:05:40.489Z,9.26
2022-08-04T17:06:48.669Z,9.07
2022-08-04T17:08:19.566Z,9.83
2022-08-04T17:09:03.577Z,10.17
2022-08-04T17:10:08.544Z,10.32
2022-08-04T17:11:19.943Z,10.17
2022-08-04T17:12:30.110Z,11.92
2022-08-04T17:14:01.769Z,10.31
2022-08-04T17:14:42.722Z,10.98
2022-08-04T17:15:50.493Z,12.31
2022-08-04T17:17:04.311Z,9.50
2022-08-04T17:18:18.742Z,9.43
2022-08-04T17:19:26.408Z,9.98
2022-08-04T17:20:59.064Z,9.88
2022-08-04T17:21:37.342Z,9.28
2022-08-04T17:22:44.462Z,9.69
2022-08-04T17:24:16.448Z,9.71